Time;durP1;ratioP1;P1;durP2;ratioP2;P2;SDS_P1;SDS_P2;PMS_P1;PMS_P2;Temp;Humidity;BMP_temperature;BMP_pressure;BME280_temperature;BME280_humidity;BME280_pressure;Samples;Min_cycle;Max_cycle;Signal;HPM_P1;HPM_P2
2021/08/29 04:30:51;;;;;;;10.60;5.17;;;12.90;99.90;;;;;;6010211;23;20417;-77
2021/08/29 04:33:17;;;;;;;8.13;5.40;;;12.90;99.90;;;;;;4913039;29;20838;-81
2021/08/29 04:35:43;;;;;;;9.03;5.60;;;12.90;99.90;;;;;;4913593;29;20425;-79
2021/08/29 04:38:08;;;;;;;6.13;5.53;;;12.80;99.90;;;;;;4911632;29;20331;-80
2021/08/29 04:40:34;;;;;;;5.37;4.87;;;12.80;99.90;;;;;;4897172;29;20672;-79
2021/08/29 04:42:59;;;;;;;6.10;5.50;;;12.80;99.90;;;;;;4896749;29;20179;-80
2021/08/29 04:45:25;;;;;;;5.03;4.63;;;12.80;99.90;;;;;;4896597;29;20223;-80
2021/08/29 04:47:50;;;;;;;6.13;4.60;;;12.80;99.90;;;;;;4895987;29;20191;-80
2021/08/29 04:50:16;;;;;;;6.70;5.07;;;12.80;99.90;;;;;;4896884;29;20242;-78
2021/08/29 04:52:42;;;;;;;5.37;4.87;;;12.80;99.90;;;;;;4896754;29;20205;-80
2021/08/29 04:55:08;;;;;;;5.03;4.60;;;12.80;99.90;;;;;;4896522;29;20415;-80
2021/08/29 04:57:33;;;;;;;4.73;3.77;;;12.80;99.90;;;;;;4895269;29;20245;-79
2021/08/29 04:59:59;;;;;;;4.80;4.30;;;12.80;99.90;;;;;;4896265;29;20427;-79
2021/08/29 05:02:24;;;;;;;4.87;4.33;;;12.80;99.90;;;;;;4895929;29;20202;-80
2021/08/29 05:04:50;;;;;;;4.83;4.43;;;12.80;99.90;;;;;;4896702;29;20202;-81
2021/08/29 05:07:15;;;;;;;5.00;4.50;;;12.80;99.90;;;;;;4910546;29;20715;-77
2021/08/29 05:09:41;;;;;;;4.80;4.37;;;12.80;99.90;;;;;;4895575;29;20182;-80
2021/08/29 05:12:07;;;;;;;6.93;4.37;;;12.70;99.90;;;;;;4895916;29;20212;-78
2021/08/29 05:14:32;;;;;;;5.43;4.10;;;12.80;99.90;;;;;;4896337;29;20182;-80
2021/08/29 05:16:58;;;;;;;5.10;4.60;;;12.70;99.90;;;;;;4896279;29;20207;-80
2021/08/29 05:19:23;;;;;;;6.03;5.40;;;12.70;99.90;;;;;;4895834;29;20191;-80
2021/08/29 05:21:49;;;;;;;5.43;4.93;;;12.70;99.90;;;;;;4895399;29;20203;-80
2021/08/29 05:24:14;;;;;;;6.30;5.23;;;12.70;99.90;;;;;;4895884;29;20182;-82
2021/08/29 05:26:40;;;;;;;5.10;4.60;;;12.70;99.90;;;;;;4896537;29;20270;-80
2021/08/29 05:29:05;;;;;;;5.53;5.03;;;12.70;99.90;;;;;;4895108;29;20748;-81
2021/08/29 05:31:31;;;;;;;6.03;4.60;;;12.70;99.90;;;;;;4894717;29;20211;-80
2021/08/29 05:33:56;;;;;;;5.80;4.13;;;12.60;99.90;;;;;;4895682;29;20190;-80
2021/08/29 05:36:22;;;;;;;4.53;4.13;;;12.70;99.90;;;;;;4894893;29;20605;-80
2021/08/29 05:38:47;;;;;;;4.20;3.90;;;12.60;99.90;;;;;;4895083;29;20175;-81
2021/08/29 05:41:13;;;;;;;5.17;4.63;;;12.60;99.90;;;;;;4895965;29;20246;-80
2021/08/29 05:43:38;;;;;;;6.27;5.40;;;12.60;99.90;;;;;;4895455;29;20253;-80
2021/08/29 05:46:04;;;;;;;5.67;5.07;;;12.60;99.90;;;;;;4896266;29;20598;-79
2021/08/29 05:48:30;;;;;;;5.90;4.40;;;12.70;99.90;;;;;;4895873;29;20203;-80
2021/08/29 05:50:56;;;;;;;5.47;4.97;;;12.60;99.90;;;;;;4896653;29;20191;-79
2021/08/29 05:53:21;;;;;;;6.07;5.37;;;12.70;99.90;;;;;;4896847;29;20462;-81
2021/08/29 05:55:47;;;;;;;5.20;4.70;;;12.70;99.90;;;;;;4896542;29;20179;-81
2021/08/29 05:58:12;;;;;;;4.83;4.43;;;12.70;99.90;;;;;;4895114;29;20285;-81
2021/08/29 06:00:38;;;;;;;5.20;4.43;;;12.70;99.90;;;;;;4895611;29;20183;-78
2021/08/29 06:03:03;;;;;;;5.03;4.63;;;12.70;99.90;;;;;;4895526;29;20221;-78
2021/08/29 06:05:30;;;;;;;4.23;3.63;;;12.70;99.90;;;;;;4896367;29;20180;-78
2021/08/29 06:07:56;;;;;;;4.90;4.50;;;12.80;99.90;;;;;;4894613;29;20269;-77
2021/08/29 06:10:21;;;;;;;3.80;3.50;;;12.80;99.90;;;;;;4895881;29;20505;-79
2021/08/29 06:12:47;;;;;;;3.00;2.80;;;12.80;99.90;;;;;;4895058;29;20218;-79
2021/08/29 06:15:13;;;;;;;4.07;3.17;;;12.80;99.90;;;;;;4896190;29;20612;-80
2021/08/29 06:17:38;;;;;;;2.40;2.20;;;12.80;99.90;;;;;;4895032;29;21006;-79
2021/08/29 06:20:05;;;;;;;2.40;2.30;;;12.80;99.90;;;;;;4895977;29;20191;-79
2021/08/29 06:22:30;;;;;;;2.83;2.63;;;12.80;99.90;;;;;;4896208;29;20234;-78
2021/08/29 06:24:56;;;;;;;2.40;2.20;;;12.80;99.90;;;;;;4896247;29;20873;-78
2021/08/29 06:27:22;;;;;;;2.60;2.40;;;12.90;99.90;;;;;;4896080;29;20235;-76
2021/08/29 06:29:47;;;;;;;2.50;2.30;;;12.80;99.90;;;;;;4895633;29;20620;-80
2021/08/29 06:32:13;;;;;;;2.70;2.50;;;12.90;99.90;;;;;;4898287;29;20270;-79
2021/08/29 06:34:38;;;;;;;2.57;2.37;;;12.90;99.90;;;;;;4897836;29;20242;-80
2021/08/29 06:37:04;;;;;;;2.60;2.40;;;12.90;99.90;;;;;;4898740;29;20194;-79
2021/08/29 06:39:29;;;;;;;2.30;2.10;;;12.80;99.90;;;;;;4895270;29;20183;-80
2021/08/29 06:41:55;;;;;;;2.47;2.27;;;12.90;99.90;;;;;;4896201;29;20202;-77
2021/08/29 06:44:20;;;;;;;2.00;1.90;;;12.80;99.90;;;;;;4896160;29;20182;-80
2021/08/29 06:46:46;;;;;;;4.87;2.17;;;12.90;99.90;;;;;;4910886;29;20187;-79
2021/08/29 06:49:11;;;;;;;1.60;1.50;;;12.90;99.90;;;;;;4899111;29;20260;-80
2021/08/29 06:51:37;;;;;;;1.77;1.67;;;12.80;99.90;;;;;;4900312;29;20585;-79
2021/08/29 06:54:02;;;;;;;1.80;1.70;;;12.80;99.90;;;;;;4900559;29;20175;-79
2021/08/29 06:56:28;;;;;;;1.93;1.43;;;12.90;99.90;;;;;;4899114;29;20240;-78
2021/08/29 06:58:53;;;;;;;2.03;1.90;;;12.80;99.90;;;;;;4898805;29;20187;-78
2021/08/29 07:01:19;;;;;;;2.17;1.60;;;12.80;99.90;;;;;;4904157;29;20209;-79
2021/08/29 07:03:44;;;;;;;1.87;1.73;;;12.80;99.90;;;;;;4932143;29;20188;-78
2021/08/29 07:06:10;;;;;;;2.17;1.90;;;12.90;99.90;;;;;;4918688;29;20269;-80
2021/08/29 07:08:35;;;;;;;1.37;1.37;;;12.90;99.90;;;;;;4917659;29;20510;-79
2021/08/29 07:11:01;;;;;;;1.87;1.70;;;13.00;99.90;;;;;;4918073;29;20213;-78
2021/08/29 07:13:26;;;;;;;1.23;1.23;;;12.90;99.90;;;;;;4918297;29;20221;-78
2021/08/29 07:15:52;;;;;;;2.67;1.80;;;13.00;99.90;;;;;;4917482;29;20179;-79
2021/08/29 07:18:17;;;;;;;1.67;1.57;;;13.00;99.90;;;;;;4916045;29;20301;-79
2021/08/29 07:20:43;;;;;;;1.57;1.47;;;13.00;99.90;;;;;;4916992;29;20205;-78
2021/08/29 07:23:09;;;;;;;1.77;1.57;;;13.10;99.90;;;;;;4916956;29;20182;-77
2021/08/29 07:25:34;;;;;;;1.50;1.40;;;13.20;99.90;;;;;;4916931;29;20707;-78
2021/08/29 07:28:03;;;;;;;1.70;1.60;;;13.20;99.90;;;;;;4916248;29;20186;-78
2021/08/29 07:30:29;;;;;;;1.60;1.50;;;13.30;99.90;;;;;;4915031;29;20219;-78
2021/08/29 07:32:54;;;;;;;2.73;1.43;;;13.30;99.90;;;;;;4917855;29;20937;-77
2021/08/29 07:35:20;;;;;;;1.00;1.00;;;13.30;99.90;;;;;;4917191;29;20186;-78
2021/08/29 07:37:45;;;;;;;1.27;1.17;;;13.30;99.90;;;;;;4916424;29;20214;-77
2021/08/29 07:40:11;;;;;;;1.63;1.53;;;13.30;99.90;;;;;;4918278;29;20189;-78
2021/08/29 07:42:37;;;;;;;1.40;1.30;;;13.30;99.90;;;;;;4916560;29;20730;-77
2021/08/29 07:45:03;;;;;;;1.43;1.37;;;13.30;99.90;;;;;;4916920;29;20422;-77
2021/08/29 07:47:28;;;;;;;1.40;1.30;;;13.40;99.90;;;;;;4917160;29;20230;-77
2021/08/29 07:49:54;;;;;;;1.77;1.67;;;13.50;99.90;;;;;;4916210;29;20466;-78
2021/08/29 07:52:19;;;;;;;1.30;1.20;;;13.50;99.90;;;;;;4916517;29;20281;-76
2021/08/29 07:54:45;;;;;;;1.10;1.10;;;13.50;99.90;;;;;;4915952;29;20237;-78
2021/08/29 07:57:10;;;;;;;2.70;1.00;;;13.50;99.90;;;;;;4916330;29;20209;-78
2021/08/29 07:59:36;;;;;;;2.40;0.80;;;13.50;99.90;;;;;;4914778;29;20246;-78
2021/08/29 08:02:01;;;;;;;1.87;1.27;;;13.60;99.90;;;;;;4916072;29;20222;-78
2021/08/29 08:04:27;;;;;;;3.00;1.10;;;13.50;99.90;;;;;;4916409;29;20210;-76
2021/08/29 08:06:52;;;;;;;1.60;1.50;;;13.50;99.90;;;;;;4916250;29;20224;-78
2021/08/29 08:09:18;;;;;;;1.10;0.90;;;13.50;99.90;;;;;;4915576;29;20241;-78
2021/08/29 08:11:43;;;;;;;1.23;1.00;;;13.60;99.90;;;;;;4916379;29;20687;-77
2021/08/29 08:14:09;;;;;;;1.00;1.00;;;13.70;99.90;;;;;;4916122;29;20675;-78
2021/08/29 08:16:34;;;;;;;1.20;1.07;;;13.70;99.90;;;;;;4916376;29;20205;-77
2021/08/29 08:19:00;;;;;;;1.40;1.00;;;13.80;99.90;;;;;;4915782;29;20674;-78
2021/08/29 08:21:26;;;;;;;1.20;1.20;;;13.80;99.90;;;;;;4916596;29;20543;-78
2021/08/29 08:23:51;;;;;;;1.00;1.00;;;13.80;99.90;;;;;;4916827;29;20185;-78
2021/08/29 08:26:17;;;;;;;1.53;1.43;;;13.90;99.90;;;;;;4916333;29;20186;-78
2021/08/29 08:28:42;;;;;;;1.60;1.50;;;14.00;99.90;;;;;;4915669;29;20185;-77
2021/08/29 08:31:08;;;;;;;1.80;1.70;;;14.10;99.90;;;;;;4916101;29;20205;-78
2021/08/29 08:33:33;;;;;;;2.73;2.10;;;14.20;99.90;;;;;;4916827;29;20258;-78
2021/08/29 08:35:59;;;;;;;3.37;3.03;;;14.30;99.90;;;;;;4917235;29;20178;-78
2021/08/29 08:38:24;;;;;;;3.60;3.40;;;14.40;99.90;;;;;;4915010;29;20709;-77
2021/08/29 08:40:50;;;;;;;4.23;3.53;;;14.50;99.90;;;;;;4915017;29;20291;-77
2021/08/29 08:43:15;;;;;;;3.83;3.63;;;14.70;99.90;;;;;;4915797;29;20193;-78
2021/08/29 08:45:45;;;;;;;3.80;3.50;;;14.80;99.90;;;;;;4915517;29;20284;-77
2021/08/29 08:48:12;;;;;;;3.60;3.40;;;15.00;99.90;;;;;;4914854;29;20210;-78
2021/08/29 08:50:43;;;;;;;4.20;3.90;;;15.10;99.90;;;;;;4915315;29;20433;-77
2021/08/29 08:53:08;;;;;;;4.00;3.70;;;15.10;99.90;;;;;;4915375;29;20445;-78
2021/08/29 08:55:36;;;;;;;4.37;4.07;;;15.20;99.90;;;;;;4915918;29;20967;-78
2021/08/29 08:58:02;;;;;;;4.80;4.43;;;15.10;99.90;;;;;;4913906;29;20217;-78
2021/08/29 09:00:28;;;;;;;4.23;3.93;;;15.10;99.90;;;;;;4930043;29;20485;-79
2021/08/29 09:02:55;;;;;;;5.20;4.60;;;15.10;99.90;;;;;;4911686;29;20658;-78
2021/08/29 09:05:22;;;;;;;4.93;4.53;;;15.10;99.90;;;;;;4915231;29;20189;-78
2021/08/29 09:07:47;;;;;;;4.47;4.17;;;15.00;99.90;;;;;;4914448;29;20523;-78
2021/08/29 09:10:13;;;;;;;4.30;4.00;;;15.00;99.90;;;;;;4917208;29;20430;-79
2021/08/29 09:13:01;;;;;;;4.23;3.83;;;15.00;99.90;;;;;;4916233;29;20216;-78
2021/08/29 09:15:28;;;;;;;5.10;4.70;;;15.10;99.90;;;;;;4917159;29;20200;-79
2021/08/29 09:17:54;;;;;;;7.70;5.23;;;15.20;99.90;;;;;;4914722;29;20465;-79
2021/08/29 09:20:26;;;;;;;4.07;3.77;;;15.20;99.90;;;;;;4915501;29;20679;-78
2021/08/29 09:22:57;;;;;;;5.40;4.90;;;15.20;99.90;;;;;;4917838;29;20471;-79
2021/08/29 09:25:25;;;;;;;5.37;4.53;;;15.20;99.90;;;;;;4917727;29;20425;-78
2021/08/29 09:27:53;;;;;;;2.53;2.43;;;15.10;99.90;;;;;;4916263;29;20415;-79
2021/08/29 09:30:21;;;;;;;4.50;3.87;;;15.10;99.90;;;;;;4918174;29;20421;-78
2021/08/29 09:33:01;;;;;;;2.20;2.10;;;15.10;99.90;;;;;;4916636;29;20463;-79
2021/08/29 09:35:32;;;;;;;1.87;1.77;;;15.00;99.90;;;;;;4916773;29;20490;-79
2021/08/29 09:37:59;;;;;;;3.83;3.53;;;15.00;99.90;;;;;;4914351;29;20462;-78
2021/08/29 09:40:25;;;;;;;3.93;3.60;;;14.90;99.90;;;;;;4916522;29;20784;-78
2021/08/29 09:42:53;;;;;;;3.20;3.00;;;14.90;99.90;;;;;;4915752;29;20435;-78
2021/08/29 09:45:30;;;;;;;3.90;3.60;;;14.90;99.90;;;;;;4916305;29;20429;-78
2021/08/29 09:48:05;;;;;;;5.20;4.73;;;14.90;99.90;;;;;;4913941;29;20784;-77
2021/08/29 09:50:37;;;;;;;3.40;3.10;;;14.90;99.90;;;;;;4914988;29;20422;-77
2021/08/29 09:53:02;;;;;;;5.40;4.83;;;14.90;99.90;;;;;;4915227;29;20427;-77
2021/08/29 09:55:35;;;;;;;5.93;5.33;;;15.00;99.90;;;;;;4914279;29;20485;-78
2021/08/29 09:58:20;;;;;;;7.20;6.60;;;15.00;99.90;;;;;;4903198;29;20206;-77
2021/08/29 10:01:09;;;;;;;5.87;5.37;;;15.00;99.90;;;;;;4913766;29;20422;-78
2021/08/29 10:03:37;;;;;;;6.83;6.23;;;15.00;99.90;;;;;;4896906;29;20407;-76
2021/08/29 10:06:26;;;;;;;6.47;5.97;;;15.10;99.90;;;;;;4894641;29;20442;-75
2021/08/29 10:08:54;;;;;;;5.70;5.20;;;15.10;99.90;;;;;;4894235;29;20492;-76
2021/08/29 10:11:21;;;;;;;5.50;5.00;;;15.10;99.90;;;;;;4894366;29;20434;-76
2021/08/29 10:13:47;;;;;;;7.23;6.73;;;15.10;99.90;;;;;;4900118;29;20464;-77
2021/08/29 10:16:14;;;;;;;6.83;6.20;;;15.20;99.90;;;;;;4916059;29;20410;-79
2021/08/29 10:18:42;;;;;;;5.50;5.17;;;15.30;99.90;;;;;;4923065;29;20415;-78
2021/08/29 10:21:10;;;;;;;8.50;5.10;;;15.40;99.90;;;;;;4922729;29;20442;-77
2021/08/29 10:23:42;;;;;;;6.00;5.30;;;15.30;99.90;;;;;;4918247;29;20428;-79
2021/08/29 10:26:09;;;;;;;10.33;5.63;;;15.30;99.90;;;;;;4920427;29;20813;-77
2021/08/29 10:28:43;;;;;;;7.70;5.20;;;15.30;99.90;;;;;;4918953;29;20466;-78
2021/08/29 10:31:16;;;;;;;6.30;5.37;;;15.30;99.90;;;;;;4920651;29;20465;-77
2021/08/29 10:33:49;;;;;;;6.10;5.60;;;15.30;99.90;;;;;;4921149;29;20430;-78
2021/08/29 10:36:20;;;;;;;5.47;5.07;;;15.30;99.90;;;;;;4921353;29;20414;-78
2021/08/29 10:38:47;;;;;;;5.53;5.13;;;15.20;99.90;;;;;;4919360;29;20506;-78
2021/08/29 10:41:16;;;;;;;7.67;6.90;;;15.20;99.90;;;;;;4920666;29;20458;-78
2021/08/29 10:43:43;;;;;;;7.20;6.60;;;15.30;99.90;;;;;;4919939;29;20426;-78
2021/08/29 10:46:10;;;;;;;5.70;5.30;;;15.40;99.90;;;;;;4920025;29;20935;-78
2021/08/29 10:48:49;;;;;;;6.87;6.47;;;15.30;99.90;;;;;;4919381;29;20421;-78
2021/08/29 10:51:17;;;;;;;6.00;5.60;;;15.40;99.90;;;;;;4921070;29;20456;-78
2021/08/29 10:53:51;;;;;;;5.90;5.40;;;15.50;99.90;;;;;;4921293;29;20430;-79
2021/08/29 10:56:17;;;;;;;5.83;4.23;;;15.60;99.90;;;;;;4920516;29;20441;-78
2021/08/29 10:59:08;;;;;;;4.83;4.53;;;15.60;99.90;;;;;;4920365;29;20493;-79
2021/08/29 11:01:37;;;;;;;4.00;3.80;;;15.70;99.90;;;;;;4921069;29;20191;-78
2021/08/29 11:04:18;;;;;;;4.67;4.37;;;15.70;99.90;;;;;;4921171;29;20429;-78
2021/08/29 11:06:47;;;;;;;4.00;3.80;;;15.70;99.90;;;;;;4920726;29;20466;-79
2021/08/29 11:09:34;;;;;;;5.27;3.80;;;15.70;99.90;;;;;;4919859;29;20441;-79
2021/08/29 11:12:05;;;;;;;5.90;4.30;;;15.80;99.90;;;;;;4920714;29;20425;-79
2021/08/29 11:14:47;;;;;;;4.87;4.53;;;15.90;99.90;;;;;;4918560;29;20988;-79
2021/08/29 11:17:17;;;;;;;4.10;3.80;;;15.80;99.90;;;;;;4917050;29;20469;-78
2021/08/29 11:19:49;;;;;;;5.40;5.00;;;15.90;99.90;;;;;;4914792;29;20433;-78
2021/08/29 11:22:17;;;;;;;5.23;4.17;;;16.00;99.90;;;;;;4915709;29;20453;-79
2021/08/29 11:25:00;;;;;;;4.83;4.43;;;16.20;99.90;;;;;;4918214;29;20527;-78
2021/08/29 11:27:38;;;;;;;4.00;3.80;;;16.50;99.90;;;;;;4915331;29;20814;-78
2021/08/29 11:30:08;;;;;;;3.93;3.67;;;16.90;99.90;;;;;;4915968;29;20930;-79
2021/08/29 11:32:57;;;;;;;6.10;4.33;;;17.00;99.90;;;;;;4917692;29;20880;-78
2021/08/29 11:35:23;;;;;;;4.73;4.43;;;17.00;99.90;;;;;;4919666;29;21037;-79
2021/08/29 11:38:14;;;;;;;4.73;4.37;;;16.90;99.90;;;;;;4919038;29;20553;-78
2021/08/29 11:40:50;;;;;;;5.03;4.00;;;16.90;99.90;;;;;;4918893;29;20181;-79
2021/08/29 11:43:30;;;;;;;4.70;4.30;;;16.80;99.90;;;;;;4917066;29;20430;-80
2021/08/29 11:46:04;;;;;;;3.73;3.50;;;17.00;99.90;;;;;;4921562;29;20967;-79
2021/08/29 11:48:31;;;;;;;3.57;3.37;;;17.10;99.90;;;;;;4917563;29;20449;-79
2021/08/29 11:50:59;;;;;;;3.50;3.23;;;17.10;99.90;;;;;;4919216;29;20440;-79
2021/08/29 11:53:25;;;;;;;3.37;3.17;;;17.20;99.90;;;;;;4920034;29;20505;-80
2021/08/29 11:55:56;;;;;;;3.47;3.27;;;17.20;99.90;;;;;;4920248;29;20445;-80
2021/08/29 11:58:23;;;;;;;3.73;3.53;;;17.20;99.90;;;;;;4917986;29;20980;-79
2021/08/29 12:00:50;;;;;;;3.60;3.30;;;17.00;99.90;;;;;;4917569;29;20824;-77
2021/08/29 12:03:16;;;;;;;3.03;2.93;;;17.00;99.90;;;;;;4918299;29;20436;-79
2021/08/29 12:06:05;;;;;;;3.23;3.03;;;16.80;99.90;;;;;;4918312;29;20428;-79
2021/08/29 12:08:40;;;;;;;3.40;3.20;;;16.60;99.90;;;;;;4917654;29;21028;-80
2021/08/29 12:11:09;;;;;;;3.20;3.00;;;16.50;99.90;;;;;;4901295;29;21003;-79
2021/08/29 12:13:35;;;;;;;3.60;3.30;;;16.40;99.90;;;;;;4918486;29;20438;-78
2021/08/29 12:16:02;;;;;;;3.87;3.57;;;16.50;99.90;;;;;;4920943;29;20497;-79
2021/08/29 12:18:30;;;;;;;4.17;3.17;;;16.40;99.90;;;;;;4919421;29;20217;-77
2021/08/29 12:20:56;;;;;;;4.60;4.30;;;16.40;99.90;;;;;;4917907;29;20989;-78
2021/08/29 12:23:25;;;;;;;4.23;4.00;;;16.30;99.90;;;;;;4919126;29;20469;-79
2021/08/29 12:26:08;;;;;;;4.90;4.60;;;16.10;99.90;;;;;;4921635;29;20419;-79
2021/08/29 12:28:36;;;;;;;4.13;3.73;;;16.10;99.90;;;;;;4920431;29;20442;-78
2021/08/29 12:31:03;;;;;;;4.17;3.87;;;16.00;99.90;;;;;;4916306;29;20485;-76
2021/08/29 12:33:30;;;;;;;3.97;3.57;;;16.00;99.90;;;;;;4915277;29;20486;-77
2021/08/29 12:35:56;;;;;;;4.70;4.30;;;15.90;99.90;;;;;;4914287;29;20796;-79
2021/08/29 12:38:24;;;;;;;4.43;4.03;;;16.10;99.90;;;;;;4922485;29;20560;-78
2021/08/29 12:40:52;;;;;;;3.67;3.37;;;16.10;99.90;;;;;;4919685;29;20480;-78
2021/08/29 12:43:18;;;;;;;3.97;3.67;;;16.20;99.90;;;;;;4918199;29;20429;-79
2021/08/29 12:45:44;;;;;;;4.50;4.20;;;16.30;99.90;;;;;;4916426;29;20426;-79
2021/08/29 12:48:09;;;;;;;3.87;3.63;;;16.30;99.90;;;;;;4914854;29;20457;-78
2021/08/29 12:51:02;;;;;;;3.63;3.43;;;16.20;99.90;;;;;;4919312;29;20198;-77
2021/08/29 12:53:30;;;;;;;4.33;4.03;;;16.10;99.90;;;;;;4901094;29;20720;-78
2021/08/29 12:55:56;;;;;;;4.30;3.47;;;16.10;99.90;;;;;;4919326;29;20466;-78
2021/08/29 12:58:28;;;;;;;4.40;4.00;;;16.00;99.90;;;;;;4909346;29;20478;-80
2021/08/29 13:01:04;;;;;;;4.20;3.80;;;15.90;99.90;;;;;;4916713;29;20461;-80
2021/08/29 13:03:30;;;;;;;5.13;4.67;;;16.00;99.90;;;;;;4920841;29;20442;-79
2021/08/29 13:06:04;;;;;;;4.60;4.20;;;15.90;99.90;;;;;;4918721;29;20433;-79
2021/08/29 13:08:40;;;;;;;4.30;4.00;;;15.80;99.90;;;;;;4917806;29;20423;-77
2021/08/29 13:11:09;;;;;;;5.23;4.30;;;15.80;99.90;;;;;;4916246;29;20457;-78
2021/08/29 13:13:50;;;;;;;9.20;5.53;;;15.70;99.90;;;;;;4918073;29;20469;-78
2021/08/29 13:16:16;;;;;;;8.03;7.30;;;15.60;99.90;;;;;;4917533;29;20432;-78
2021/08/29 13:18:43;;;;;;;6.93;6.27;;;15.60;99.90;;;;;;4899433;29;20493;-77
2021/08/29 13:21:27;;;;;;;6.80;6.03;;;15.60;99.90;;;;;;4896961;29;20442;-75
2021/08/29 13:23:53;;;;;;;6.93;6.30;;;15.60;99.90;;;;;;4909977;29;20437;-76
2021/08/29 13:26:21;;;;;;;6.23;5.63;;;15.60;99.90;;;;;;4915053;29;20415;-76
2021/08/29 13:28:56;;;;;;;7.37;6.43;;;15.50;99.90;;;;;;4908304;29;20517;-77
2021/08/29 13:31:31;;;;;;;6.43;5.67;;;15.40;99.90;;;;;;4914722;29;20505;-77
2021/08/29 13:34:01;;;;;;;5.13;4.63;;;15.40;99.90;;;;;;4910905;29;20445;-77
2021/08/29 13:36:27;;;;;;;4.97;4.57;;;15.30;99.90;;;;;;4915576;29;20425;-78
2021/08/29 13:38:53;;;;;;;5.90;5.27;;;15.30;99.90;;;;;;4915651;29;20449;-77
2021/08/29 13:41:19;;;;;;;5.10;4.60;;;15.30;99.90;;;;;;4915203;29;20205;-75
2021/08/29 13:43:45;;;;;;;4.80;4.40;;;15.20;99.90;;;;;;4915367;29;20192;-78
2021/08/29 13:46:14;;;;;;;4.20;3.90;;;15.20;99.90;;;;;;4916338;29;20796;-77
2021/08/29 13:48:40;;;;;;;6.10;5.57;;;15.20;99.90;;;;;;4916635;29;20259;-79
2021/08/29 13:51:06;;;;;;;6.03;5.10;;;15.20;99.90;;;;;;4917244;29;20446;-79
2021/08/29 13:53:33;;;;;;;6.10;5.50;;;15.40;99.90;;;;;;4916697;29;20186;-77
2021/08/29 13:56:00;;;;;;;4.80;4.40;;;15.50;99.90;;;;;;4915184;29;20495;-78
2021/08/29 13:58:27;;;;;;;5.00;4.60;;;15.60;99.90;;;;;;4917095;29;20564;-78
2021/08/29 14:00:54;;;;;;;4.27;3.87;;;15.70;99.90;;;;;;4914966;29;20868;-76
2021/08/29 14:03:19;;;;;;;4.97;4.43;;;15.80;99.90;;;;;;4913691;29;20469;-76
2021/08/29 14:05:45;;;;;;;6.27;4.40;;;15.90;99.90;;;;;;4916534;29;20859;-78
2021/08/29 14:08:11;;;;;;;7.50;4.37;;;16.00;99.90;;;;;;4916787;29;20987;-78
2021/08/29 14:10:37;;;;;;;3.70;3.40;;;16.00;99.90;;;;;;4916632;29;20432;-77
2021/08/29 14:13:02;;;;;;;3.83;3.53;;;16.00;99.90;;;;;;4915932;29;20186;-78
2021/08/29 14:15:28;;;;;;;4.07;3.77;;;16.00;99.90;;;;;;4915791;29;20201;-77
2021/08/29 14:17:55;;;;;;;3.60;3.30;;;16.00;99.90;;;;;;4916719;29;20301;-79
2021/08/29 14:20:21;;;;;;;3.77;3.47;;;15.90;99.90;;;;;;4916075;29;20201;-77
2021/08/29 14:22:47;;;;;;;4.40;4.00;;;15.90;99.90;;;;;;4930917;29;20438;-77
2021/08/29 14:25:14;;;;;;;4.20;3.80;;;15.80;99.90;;;;;;4915849;29;20178;-78
2021/08/29 14:27:50;;;;;;;4.10;3.80;;;15.70;99.90;;;;;;4916301;29;20202;-78
2021/08/29 14:30:34;;;;;;;5.30;4.80;;;15.70;99.90;;;;;;4915738;29;20520;-78
2021/08/29 14:33:00;;;;;;;4.40;4.00;;;15.60;99.90;;;;;;4904800;29;20445;-79
2021/08/29 14:35:27;;;;;;;4.60;4.20;;;15.60;99.90;;;;;;4917686;29;20422;-78
2021/08/29 14:37:53;;;;;;;6.10;4.70;;;15.60;99.90;;;;;;4916276;29;20563;-78
2021/08/29 14:40:20;;;;;;;5.17;4.77;;;15.70;99.90;;;;;;4916073;29;20430;-78
2021/08/29 14:42:46;;;;;;;5.63;3.93;;;15.70;99.90;;;;;;4915624;29;20495;-77
2021/08/29 14:45:13;;;;;;;5.00;4.40;;;15.60;99.90;;;;;;4914435;29;20438;-76
2021/08/29 14:47:38;;;;;;;5.20;4.70;;;15.50;99.90;;;;;;4914178;29;20442;-77
2021/08/29 14:50:08;;;;;;;5.07;4.60;;;15.50;99.90;;;;;;4912875;29;20449;-77
2021/08/29 14:52:35;;;;;;;4.77;4.37;;;15.50;99.90;;;;;;4922133;29;20703;-78
2021/08/29 14:55:01;;;;;;;8.60;5.17;;;15.50;99.90;;;;;;4920911;29;20468;-79
2021/08/29 14:57:26;;;;;;;5.13;4.40;;;15.50;99.90;;;;;;4917499;29;20930;-78
2021/08/29 14:59:52;;;;;;;6.00;5.33;;;15.40;99.90;;;;;;4915027;29;20525;-78
2021/08/29 15:02:18;;;;;;;4.10;3.80;;;15.50;99.90;;;;;;4915584;29;20217;-77
2021/08/29 15:04:45;;;;;;;5.40;4.90;;;15.40;99.90;;;;;;4910575;29;20191;-78
2021/08/29 15:07:11;;;;;;;5.83;4.50;;;15.30;99.90;;;;;;4916761;29;20189;-76
2021/08/29 15:09:36;;;;;;;4.77;3.93;;;15.40;99.90;;;;;;4917912;29;20814;-77
2021/08/29 15:12:02;;;;;;;4.03;3.73;;;15.30;99.90;;;;;;4921071;29;20222;-77
2021/08/29 15:14:27;;;;;;;4.13;3.80;;;15.30;99.90;;;;;;4914036;29;20755;-77
2021/08/29 15:16:53;;;;;;;5.17;4.67;;;15.20;99.90;;;;;;4917285;29;20206;-76
2021/08/29 15:19:19;;;;;;;6.30;4.30;;;15.20;99.90;;;;;;4916115;29;20270;-78
2021/08/29 15:21:44;;;;;;;3.83;3.53;;;15.20;99.90;;;;;;4914812;29;20263;-77
2021/08/29 15:24:10;;;;;;;3.80;3.50;;;15.20;99.90;;;;;;4916021;29;20508;-76
2021/08/29 15:26:36;;;;;;;5.87;3.63;;;15.20;99.90;;;;;;4912506;29;20192;-77
2021/08/29 15:29:02;;;;;;;3.73;3.47;;;15.20;99.90;;;;;;4914241;29;20189;-76
2021/08/29 15:31:28;;;;;;;3.30;3.03;;;15.20;99.90;;;;;;4916721;29;20250;-78
2021/08/29 15:33:54;;;;;;;4.10;3.80;;;15.20;99.90;;;;;;4916202;29;20840;-77
2021/08/29 15:36:19;;;;;;;4.63;3.70;;;15.20;99.90;;;;;;4914166;29;20410;-77
2021/08/29 15:38:45;;;;;;;4.40;4.00;;;15.20;99.90;;;;;;4913247;29;20265;-77
2021/08/29 15:41:10;;;;;;;3.97;3.57;;;15.10;99.90;;;;;;4917057;29;20206;-75
2021/08/29 15:43:36;;;;;;;5.03;4.43;;;15.00;99.90;;;;;;4917553;29;20174;-77
2021/08/29 15:46:02;;;;;;;6.83;5.50;;;14.90;99.90;;;;;;4917926;29;20178;-77
2021/08/29 15:48:27;;;;;;;8.37;7.40;;;14.90;99.90;;;;;;4917128;29;20189;-77
2021/08/29 15:50:53;;;;;;;7.17;6.47;;;14.80;99.90;;;;;;4917628;29;20194;-77
2021/08/29 15:53:23;;;;;;;8.57;7.10;;;14.70;99.90;;;;;;4917611;29;20265;-77
2021/08/29 15:55:49;;;;;;;7.40;6.00;;;14.70;99.90;;;;;;4918315;29;20683;-77
2021/08/29 15:58:14;;;;;;;8.10;7.00;;;14.70;99.90;;;;;;4917399;29;20461;-77
2021/08/29 16:00:40;;;;;;;8.20;7.33;;;14.70;99.90;;;;;;4916995;29;20189;-77
2021/08/29 16:03:06;;;;;;;8.17;6.93;;;14.70;99.90;;;;;;4917889;29;20213;-77
2021/08/29 16:05:32;;;;;;;8.90;7.60;;;14.70;99.90;;;;;;4917475;29;20170;-76
2021/08/29 16:07:58;;;;;;;7.80;7.00;;;14.70;99.90;;;;;;4917444;29;20541;-76
2021/08/29 16:10:24;;;;;;;17.17;8.50;;;14.70;99.90;;;;;;4917253;29;20477;-77
2021/08/29 16:12:50;;;;;;;11.40;8.80;;;14.70;99.90;;;;;;4916977;29;20450;-77
2021/08/29 16:15:17;;;;;;;13.83;7.80;;;14.70;99.90;;;;;;4917411;29;20414;-77
2021/08/29 16:17:43;;;;;;;8.83;8.03;;;14.70;99.90;;;;;;4917306;29;20989;-77
2021/08/29 16:20:10;;;;;;;8.93;7.77;;;14.70;99.90;;;;;;4915351;29;20497;-76
2021/08/29 16:22:36;;;;;;;9.83;7.53;;;14.70;99.90;;;;;;4915678;29;20431;-76
2021/08/29 16:25:03;;;;;;;12.53;9.67;;;14.70;99.90;;;;;;4916763;29;20418;-77
2021/08/29 16:27:29;;;;;;;10.50;8.77;;;14.70;99.90;;;;;;4916545;29;20193;-77
2021/08/29 16:29:57;;;;;;;10.73;9.23;;;14.60;99.90;;;;;;4916271;29;20786;-77
2021/08/29 16:32:24;;;;;;;11.27;8.70;;;14.60;99.90;;;;;;4916760;29;20233;-76
2021/08/29 16:34:49;;;;;;;9.20;8.30;;;14.60;99.90;;;;;;4917228;29;20418;-77
2021/08/29 16:37:15;;;;;;;9.83;8.20;;;14.60;99.90;;;;;;4916640;29;20955;-77
2021/08/29 16:39:40;;;;;;;8.93;7.87;;;14.60;99.90;;;;;;4916625;29;20212;-77
2021/08/29 16:42:06;;;;;;;8.87;7.70;;;14.60;99.90;;;;;;4917138;29;20217;-77
2021/08/29 16:44:31;;;;;;;10.93;7.63;;;14.60;99.90;;;;;;4917170;29;20171;-77
2021/08/29 16:46:57;;;;;;;8.93;8.00;;;14.60;99.90;;;;;;4916364;29;20182;-77
2021/08/29 16:49:22;;;;;;;9.50;7.73;;;14.60;99.90;;;;;;4914872;29;20193;-77
2021/08/29 16:51:48;;;;;;;10.57;8.37;;;14.60;99.90;;;;;;4916668;29;20242;-77
2021/08/29 16:54:14;;;;;;;15.13;8.53;;;14.50;99.90;;;;;;4916053;29;20204;-77
2021/08/29 16:56:40;;;;;;;10.47;7.37;;;14.50;99.90;;;;;;4916687;29;20182;-77
2021/08/29 16:59:06;;;;;;;10.40;8.27;;;14.50;99.90;;;;;;4916109;29;20178;-77
2021/08/29 17:01:32;;;;;;;12.10;8.73;;;14.50;99.90;;;;;;4916866;29;20445;-78
2021/08/29 17:03:57;;;;;;;11.97;8.20;;;14.50;99.90;;;;;;4917121;29;20174;-78
2021/08/29 17:06:24;;;;;;;11.33;8.20;;;14.50;99.90;;;;;;4916781;29;20541;-77
2021/08/29 17:08:50;;;;;;;10.20;7.63;;;14.50;99.90;;;;;;4914881;29;20237;-75
2021/08/29 17:11:16;;;;;;;8.43;7.30;;;14.50;99.90;;;;;;4916554;29;20438;-78
2021/08/29 17:13:41;;;;;;;8.23;7.00;;;14.50;99.90;;;;;;4917090;29;20182;-77
2021/08/29 17:16:07;;;;;;;10.43;6.80;;;14.50;99.90;;;;;;4917037;29;20586;-78
2021/08/29 17:18:32;;;;;;;8.87;7.93;;;14.50;99.90;;;;;;4916615;29;20210;-77